Time;durP1;ratioP1;P1;durP2;ratioP2;P2;SDS_P1;SDS_P2;PMS_P1;PMS_P2;Temp;Humidity;BMP_temperature;BMP_pressure;BME280_temperature;BME280_humidity;BME280_pressure;Samples;Min_cycle;Max_cycle;Signal;HPM_P1;HPM_P2
2021/06/12 00:04:32;;;;;;;;;2.00;1.25;;;;;23.96;100.00;101875.75;5079220;28;45320;-76
2021/06/12 00:06:58;;;;;;;;;1.50;0.75;;;;;23.98;100.00;101889.84;5078907;28;45356;-76
2021/06/12 00:09:25;;;;;;;;;1.00;1.00;;;;;23.94;100.00;101893.63;5079032;28;45544;-77
2021/06/12 00:11:51;;;;;;;;;1.00;1.00;;;;;23.86;100.00;101890.50;5079115;28;45291;-76
2021/06/12 00:14:16;;;;;;;;;1.00;1.00;;;;;23.81;100.00;101890.75;5079244;28;45283;-78
2021/06/12 00:16:42;;;;;;;;;1.00;1.00;;;;;23.75;100.00;101880.38;5079151;28;45205;-77
2021/06/12 00:19:07;;;;;;;;;1.00;1.00;;;;;23.80;100.00;101890.84;5078963;28;45462;-76
2021/06/12 00:21:36;;;;;;;;;0.75;0.75;;;;;23.70;100.00;101885.09;5078547;28;45420;-77
2021/06/12 00:24:01;;;;;;;;;2.00;1.25;;;;;23.59;100.00;101867.94;5079152;28;45410;-77
2021/06/12 00:26:27;;;;;;;;;2.00;1.00;;;;;23.69;100.00;101895.84;5079056;28;45264;-76
2021/06/12 00:28:52;;;;;;;;;1.00;0.25;;;;;23.60;100.00;101882.97;5078941;28;45415;-76
2021/06/12 00:34:39;;;;;;;;;1.00;1.00;;;;;23.54;100.00;101884.13;5078615;28;45442;-75
2021/06/12 00:37:04;;;;;;;;;1.00;0.75;;;;;23.53;100.00;101893.03;5078625;28;45499;-76
2021/06/12 00:39:30;;;;;;;;;0.50;0.50;;;;;23.51;100.00;101892.25;5078617;28;46149;-76
2021/06/12 00:41:55;;;;;;;;;1.00;1.00;;;;;23.45;100.00;101901.44;5078728;28;45448;-76
2021/06/12 00:44:21;;;;;;;;;1.75;1.00;;;;;23.36;100.00;101891.22;5078504;28;45769;-76
2021/06/12 00:50:47;;;;;;;;;1.00;1.00;;;;;23.33;100.00;101893.19;5073399;28;45924;-76
2021/06/12 00:53:18;;;;;;;;;0.00;0.00;;;;;23.30;100.00;101885.31;5078259;28;45420;-76
2021/06/12 00:55:44;;;;;;;;;1.00;1.00;;;;;23.23;100.00;101879.44;5078123;28;45222;-76
2021/06/12 00:58:10;;;;;;;;;1.00;1.00;;;;;23.22;100.00;101888.38;5078888;28;45325;-76
2021/06/12 01:00:35;;;;;;;;;0.00;0.00;;;;;23.11;100.00;101870.25;5078268;28;45425;-76
2021/06/12 01:03:02;;;;;;;;;0.50;0.00;;;;;23.08;100.00;101878.38;5077564;28;45281;-76
2021/06/12 01:05:27;;;;;;;;;1.00;1.00;;;;;22.99;100.00;101875.28;5078436;28;45257;-76
2021/06/12 01:07:53;;;;;;;;;1.00;1.00;;;;;23.06;100.00;101885.56;5078673;28;45438;-77
2021/06/12 01:10:19;;;;;;;;;1.50;1.00;;;;;23.09;100.00;101893.44;5077950;28;46169;-76
2021/06/12 01:13:01;;;;;;;;;1.00;1.00;;;;;23.08;100.00;101891.69;5078275;28;45532;-76
2021/06/12 01:15:36;;;;;;;;;1.00;1.00;;;;;23.03;100.00;101891.06;5078140;28;45404;-76
2021/06/12 01:18:13;;;;;;;;;0.75;0.75;;;;;23.03;100.00;101892.84;5078035;28;45284;-76
2021/06/12 01:21:14;;;;;;;;;1.00;1.00;;;;;23.01;100.00;101890.25;5077691;28;46394;-76
2021/06/12 01:23:46;;;;;;;;;1.00;1.00;;;;;22.98;100.00;101887.75;5078110;28;45229;-76
2021/06/12 01:26:31;;;;;;;;;1.50;1.50;;;;;22.95;100.00;101887.03;5078025;28;45355;-76
2021/06/12 01:29:28;;;;;;;;;0.00;0.00;;;;;22.89;100.00;101880.22;5078130;28;45356;-76
2021/06/12 01:31:54;;;;;;;;;0.25;0.25;;;;;22.75;100.00;101872.84;4995444;28;47315;-76
2021/06/12 01:34:21;;;;;;;;;1.25;1.00;;;;;22.85;100.00;101889.25;4995462;28;45346;-76
2021/06/12 01:36:48;;;;;;;;;0.75;0.75;;;;;22.84;100.00;101898.19;4995452;28;45360;-76
2021/06/12 01:39:15;;;;;;;;;1.50;1.50;;;;;22.76;100.00;101890.53;4995748;28;45479;-75
2021/06/12 01:41:42;;;;;;;;;1.00;1.00;;;;;22.60;100.00;101873.53;4995538;28;45805;-75
2021/06/12 01:44:09;;;;;;;;;1.00;1.00;;;;;22.72;100.00;101890.75;4995431;28;45462;-75
2021/06/12 01:46:38;;;;;;;;;0.50;0.50;;;;;22.60;100.00;101876.19;4995502;28;45411;-76
2021/06/12 01:49:04;;;;;;;;;1.25;1.25;;;;;22.56;100.00;101885.25;4995615;28;45436;-75
2021/06/12 01:51:30;;;;;;;;;1.00;1.00;;;;;22.53;100.00;101883.63;4995251;28;46582;-74
2021/06/12 01:53:58;;;;;;;;;1.50;1.00;;;;;22.49;100.00;101881.16;4995177;28;45409;-75
2021/06/12 01:56:26;;;;;;;;;0.25;0.25;;;;;22.53;100.00;101894.25;4995298;28;45247;-75
2021/06/12 01:58:53;;;;;;;;;1.00;1.00;;;;;22.41;100.00;101880.66;4995269;28;45591;-76
2021/06/12 02:01:22;;;;;;;;;0.00;0.00;;;;;22.49;100.00;101897.13;4994724;28;46623;-75
2021/06/12 02:03:48;;;;;;;;;0.75;0.75;;;;;22.47;100.00;101904.31;4995108;28;45646;-74
2021/06/12 02:06:16;;;;;;;;;2.00;1.00;;;;;22.33;100.00;101888.97;4995323;28;45401;-74
2021/06/12 02:08:43;;;;;;;;;2.00;1.25;;;;;22.43;100.00;101908.94;5032785;28;45466;-74
2021/06/12 02:11:12;;;;;;;;;1.00;1.00;;;;;22.36;100.00;101903.94;5077023;28;47000;-74
2021/06/12 02:13:38;;;;;;;;;0.75;0.75;;;;;22.25;100.00;101902.63;5078313;28;45380;-74
2021/06/12 02:16:05;;;;;;;;;0.75;0.75;;;;;22.28;100.00;101915.78;5080708;28;45336;-74
2021/06/12 02:18:32;;;;;;;;;0.50;0.50;;;;;22.27;100.00;101918.53;5081205;28;45413;-75
2021/06/12 02:20:59;;;;;;;;;1.75;1.75;;;;;22.21;100.00;101919.66;5081054;28;46551;-75
2021/06/12 02:23:27;;;;;;;;;1.50;1.50;;;;;22.18;100.00;101924.22;5080866;28;45470;-74
2021/06/12 02:25:53;;;;;;;;;1.00;1.00;;;;;22.17;100.00;101928.69;5081072;28;45407;-74
2021/06/12 02:28:21;;;;;;;;;1.00;1.00;;;;;22.09;100.00;101925.50;5080854;28;45255;-75
2021/06/12 02:31:00;;;;;;;;;1.00;1.00;;;;;22.03;100.00;101917.78;5080451;28;48277;-75
2021/06/12 02:33:27;;;;;;;;;1.00;0.75;;;;;22.05;100.00;101928.38;5080763;28;45604;-75
2021/06/12 02:35:54;;;;;;;;;1.50;0.75;;;;;22.00;100.00;101926.75;5080482;28;45246;-75
2021/06/12 02:38:19;;;;;;;;;0.75;0.75;;;;;21.96;100.00;101918.97;5080912;28;45269;-75
2021/06/12 02:40:45;;;;;;;;;1.25;1.25;;;;;21.95;100.00;101923.44;5080442;28;46288;-75
2021/06/12 02:43:10;;;;;;;;;1.00;1.00;;;;;21.92;100.00;101920.00;5080667;28;45347;-75
2021/06/12 02:45:36;;;;;;;;;1.00;1.00;;;;;21.77;100.00;101897.63;5080290;28;45255;-76
2021/06/12 02:48:07;;;;;;;;;1.00;1.00;;;;;21.80;100.00;101907.25;5062450;28;45507;-76
2021/06/12 02:50:36;;;;;;;;;1.00;1.00;;;;;21.77;100.00;101897.63;5079745;28;46231;-75
2021/06/12 02:53:05;;;;;;;;;0.75;0.75;;;;;21.83;100.00;101912.44;5080553;28;45501;-75
2021/06/12 02:55:35;;;;;;;;;0.50;0.00;;;;;21.69;100.00;101891.75;5080191;28;45347;-76
2021/06/12 02:58:02;;;;;;;;;1.25;0.00;;;;;21.77;100.00;101904.72;5080414;28;45462;-75
2021/06/12 03:00:30;;;;;;;;;1.25;0.75;;;;;21.68;100.00;101900.66;5079693;28;47301;-76
2021/06/12 03:02:56;;;;;;;;;0.25;0.25;;;;;21.70;100.00;101912.94;5080060;28;45548;-76
2021/06/12 03:05:25;;;;;;;;;0.75;0.50;;;;;21.47;100.00;101875.81;5079973;28;45419;-76
2021/06/12 03:07:53;;;;;;;;;0.25;0.25;;;;;21.60;100.00;101910.75;5080280;28;45443;-76
2021/06/12 03:10:20;;;;;;;;;2.50;0.50;;;;;21.44;100.00;101905.19;5080023;28;45512;-76
2021/06/12 03:12:47;;;;;;;;;1.75;1.75;;;;;21.37;100.00;101890.44;5079986;28;45335;-76
2021/06/12 03:15:13;;;;;;;;;0.50;0.50;;;;;21.35;100.00;101894.94;5080168;28;45332;-76
2021/06/12 03:17:39;;;;;;;;;1.00;0.25;;;;;21.41;100.00;101915.94;5080400;28;45266;-75
2021/06/12 03:20:06;;;;;;;;;1.00;0.75;;;;;21.26;100.00;101882.88;5079948;28;45342;-75
2021/06/12 03:22:34;;;;;;;;;0.50;0.50;;;;;21.37;100.00;101923.19;5079816;28;45258;-76
2021/06/12 03:25:03;;;;;;;;;0.25;0.25;;;;;21.35;100.00;101921.50;5079325;28;45340;-75
2021/06/12 03:27:29;;;;;;;;;0.75;0.75;;;;;21.32;100.00;101924.28;5080308;28;45313;-75
2021/06/12 03:29:56;;;;;;;;;1.00;0.75;;;;;21.26;100.00;101911.22;5079362;28;46526;-76
2021/06/12 03:35:45;;;;;;;;;1.50;1.00;;;;;21.20;100.00;101911.47;5079631;28;45305;-75
2021/06/12 03:38:11;;;;;;;;;1.00;1.00;;;;;21.10;100.00;101903.88;5079564;28;45434;-76
2021/06/12 03:40:37;;;;;;;;;2.50;2.50;;;;;21.13;100.00;101909.97;5079567;28;45396;-75
2021/06/12 03:43:04;;;;;;;;;1.00;1.00;;;;;21.05;100.00;101905.84;5079623;28;45645;-75
2021/06/12 03:45:31;;;;;;;;;1.00;1.00;;;;;21.09;100.00;101930.50;5079418;28;45369;-75
2021/06/12 03:48:01;;;;;;;;;0.50;0.50;;;;;21.06;100.00;101922.66;5079446;28;45534;-76
2021/06/12 03:50:27;;;;;;;;;1.00;1.00;;;;;20.94;100.00;101902.72;5079069;28;45440;-76
2021/06/12 03:52:54;;;;;;;;;2.50;2.00;;;;;21.01;100.00;101919.28;5079490;28;45386;-76
2021/06/12 03:55:20;;;;;;;;;1.75;1.75;;;;;20.94;100.00;101926.63;5079272;28;45363;-76
2021/06/12 03:57:47;;;;;;;;;0.75;0.75;;;;;20.87;100.00;101914.53;5061146;28;45348;-76
2021/06/12 04:00:14;;;;;;;;;2.75;2.00;;;;;20.87;100.00;101929.59;5079296;28;45348;-75
2021/06/12 04:06:01;;;;;;;;;2.00;2.00;;;;;20.84;100.00;101932.34;5078939;28;45357;-75
2021/06/12 04:08:26;;;;;;;;;2.00;2.00;;;;;20.82;100.00;101924.47;5079313;28;45350;-75
2021/06/12 04:10:52;;;;;;;;;2.75;2.00;;;;;20.82;100.00;101924.47;5079090;28;46463;-80
2021/06/12 04:13:17;;;;;;;;;2.00;2.00;;;;;20.84;100.00;101921.75;5078912;28;45422;-75
2021/06/12 04:15:42;;;;;;;;;2.00;2.00;;;;;20.83;100.00;101927.97;5078905;28;45387;-75
2021/06/12 04:18:08;;;;;;;;;3.00;3.00;;;;;20.79;100.00;101927.19;5079336;28;45442;-75
2021/06/12 04:20:39;;;;;;;;;2.75;2.75;;;;;20.90;100.00;101945.41;5078989;28;46089;-75
2021/06/12 04:23:05;;;;;;;;;1.75;1.75;;;;;20.91;100.00;101947.13;5078933;28;45597;-75
2021/06/12 04:25:31;;;;;;;;;1.50;1.50;;;;;20.82;100.00;101935.06;5078894;28;45301;-75
2021/06/12 04:27:56;;;;;;;;;3.25;3.25;;;;;20.83;100.00;101939.47;5079297;28;45372;-76
2021/06/12 04:30:22;;;;;;;;;3.00;2.50;;;;;20.86;100.00;101952.63;5078804;28;46061;-76
2021/06/12 04:36:09;;;;;;;;;3.00;3.00;;;;;20.79;100.00;101959.06;5078558;28;45393;-75
2021/06/12 04:38:34;;;;;;;;;3.00;3.00;;;;;20.73;100.00;101951.31;5077477;28;45460;-76
2021/06/12 04:41:00;;;;;;;;;4.00;4.00;;;;;20.58;100.00;101930.66;5078320;28;45524;-75
2021/06/12 04:43:25;;;;;;;;;3.25;3.25;;;;;20.67;100.00;101957.72;5078597;28;45326;-74
2021/06/12 04:45:51;;;;;;;;;3.25;3.00;;;;;20.55;100.00;101947.56;5078822;28;45285;-74
2021/06/12 04:48:16;;;;;;;;;2.50;2.50;;;;;20.45;100.00;101939.06;5078959;28;45381;-74
2021/06/12 04:50:41;;;;;;;;;3.00;3.00;;;;;20.44;100.00;101928.53;5078009;28;46302;-74
2021/06/12 04:53:09;;;;;;;;;2.00;2.00;;;;;20.52;100.00;101957.41;5078269;28;45417;-75
2021/06/12 04:55:35;;;;;;;;;3.75;3.75;;;;;20.56;100.00;101959.03;5078054;28;45313;-76
2021/06/12 04:58:01;;;;;;;;;3.00;3.00;;;;;20.54;100.00;101953.78;5078497;28;45347;-76
2021/06/12 05:00:27;;;;;;;;;4.75;4.00;;;;;20.55;100.00;101959.97;5078365;28;46139;-75
2021/06/12 05:06:14;;;;;;;;;4.00;3.25;;;;;20.55;100.00;101958.16;5077825;28;45474;-75
2021/06/12 05:08:40;;;;;;;;;2.00;2.00;;;;;20.48;100.00;101943.41;5078540;28;45359;-75
2021/06/12 05:11:05;;;;;;;;;5.50;2.50;;;;;20.54;100.00;101958.22;5078084;28;46215;-76
2021/06/12 05:13:33;;;;;;;;;3.50;3.00;;;;;20.56;100.00;101961.69;5078220;28;45277;-74
2021/06/12 05:15:59;;;;;;;;;3.00;3.00;;;;;20.50;100.00;101936.25;5078135;28;45391;-75
2021/06/12 05:18:31;;;;;;;;;6.50;5.00;;;;;20.47;100.00;101921.31;5078012;28;45261;-73
2021/06/12 05:20:57;;;;;;;;;4.50;4.00;;;;;20.55;100.00;101928.13;5077979;28;46087;-71
2021/06/12 05:23:22;;;;;;;;;4.25;4.00;;;;;20.59;100.00;101930.59;5077482;28;45359;-73
2021/06/12 05:25:48;;;;;;;;;3.00;2.75;;;;;20.64;100.00;101939.28;5077799;28;45510;-71
2021/06/12 05:28:13;;;;;;;;;4.75;3.00;;;;;20.68;100.00;101942.69;5078146;28;45420;-71
2021/06/12 05:30:38;;;;;;;;;3.00;3.00;;;;;20.72;100.00;101949.59;5077847;28;45347;-72
2021/06/12 05:36:26;;;;;;;;;3.00;3.00;;;;;20.77;100.00;101961.75;5077761;28;45219;-76
2021/06/12 05:38:51;;;;;;;;;3.00;3.00;;;;;20.89;100.00;101971.06;5077977;28;45257;-76
2021/06/12 05:41:17;;;;;;;;;4.25;4.00;;;;;20.82;100.00;101943.03;5077820;28;46537;-75
2021/06/12 05:43:43;;;;;;;;;5.50;3.00;;;;;20.94;100.00;101963.78;5077945;28;45297;-74
2021/06/12 05:46:08;;;;;;;;;4.25;4.25;;;;;20.93;100.00;101953.22;5059370;28;45418;-74
2021/06/12 05:48:34;;;;;;;;;2.50;2.50;;;;;20.94;100.00;101950.53;5077363;28;45427;-73
2021/06/12 05:50:59;;;;;;;;;3.00;3.00;;;;;21.12;100.00;101972.84;5077176;28;45624;-73
2021/06/12 05:53:25;;;;;;;;;3.00;3.00;;;;;21.19;100.00;101973.47;5077467;28;45359;-71
2021/06/12 05:55:51;;;;;;;;;4.00;3.00;;;;;21.19;100.00;101971.69;5077488;28;45387;-71
2021/06/12 05:58:17;;;;;;;;;2.50;2.50;;;;;21.15;100.00;101967.41;5059300;28;45482;-72
2021/06/12 06:00:42;;;;;;;;;4.00;3.25;;;;;21.24;100.00;101982.16;5077407;28;46406;-77
2021/06/12 06:06:29;;;;;;;;;4.00;4.00;;;;;21.30;100.00;101966.00;5077163;28;45384;-72
2021/06/12 06:08:55;;;;;;;;;3.25;3.25;;;;;21.27;100.00;101959.00;5077334;28;45359;-73
2021/06/12 06:11:20;;;;;;;;;5.75;5.50;;;;;21.21;100.00;101953.03;5076899;28;46208;-74
2021/06/12 06:13:46;;;;;;;;;5.75;5.00;;;;;21.30;100.00;101977.50;5076664;28;45420;-72
2021/06/12 06:16:12;;;;;;;;;5.50;5.50;;;;;21.31;100.00;101978.34;5077569;28;45281;-73
2021/06/12 06:18:38;;;;;;;;;8.75;7.75;;;;;21.31;100.00;101981.00;5077493;28;45359;-73
2021/06/12 06:21:05;;;;;;;;;7.00;7.00;;;;;21.20;100.00;101969.91;5077167;28;46460;-73
2021/06/12 06:23:30;;;;;;;;;4.50;4.50;;;;;21.24;100.00;101971.53;5077225;28;45490;-72
2021/06/12 06:25:56;;;;;;;;;8.00;6.75;;;;;21.22;100.00;101978.66;5077023;28;45288;-71
2021/06/12 06:28:21;;;;;;;;;8.50;7.00;;;;;21.22;100.00;101979.53;5077161;28;45527;-71
2021/06/12 06:30:47;;;;;;;;;7.75;6.00;;;;;21.27;100.00;101988.22;5076744;28;47327;-72
2021/06/12 06:36:34;;;;;;;;;5.00;5.00;;;;;21.20;100.00;101977.88;5076973;28;45334;-76
2021/06/12 06:38:59;;;;;;;;;6.25;6.25;;;;;21.26;100.00;101991.78;5077368;28;45405;-75
2021/06/12 06:41:24;;;;;;;;;7.50;6.25;;;;;21.29;100.00;102005.00;5076525;28;46300;-74
2021/06/12 06:43:50;;;;;;;;;7.50;7.50;;;;;21.24;100.00;101998.09;5076901;28;45282;-74
2021/06/12 06:46:15;;;;;;;;;8.50;7.50;;;;;21.29;100.00;102002.34;5076970;28;45230;-76
2021/06/12 06:52:04;;;;;;;;;8.75;7.25;;;;;21.43;100.00;102007.09;5065088;28;45474;-76
2021/06/12 06:54:29;;;;;;;;;9.75;8.00;;;;;21.39;100.00;102003.69;5076661;28;45494;-78
2021/06/12 06:56:55;;;;;;;;;10.25;9.25;;;;;21.39;100.00;101995.72;5058830;28;45407;-77
2021/06/12 06:59:21;;;;;;;;;8.00;8.00;;;;;21.49;100.00;102008.63;5077090;28;45321;-76
2021/06/12 07:01:46;;;;;;;;;9.00;8.00;;;;;21.54;100.00;102009.34;5078724;28;46108;-76
2021/06/12 07:04:12;;;;;;;;;10.50;8.00;;;;;21.54;100.00;101996.91;5080140;28;45297;-76
2021/06/12 07:06:37;;;;;;;;;10.00;8.75;;;;;21.64;100.00;102005.38;5080201;28;45264;-76
2021/06/12 07:09:03;;;;;;;;;7.75;6.75;;;;;21.75;100.00;102024.44;5080532;28;45328;-76
2021/06/12 07:11:28;;;;;;;;;10.50;8.25;;;;;21.83;100.00;102026.78;5079948;28;47331;-76
2021/06/12 07:13:53;;;;;;;;;10.00;9.25;;;;;21.87;100.00;102015.94;5079597;28;45390;-77
2021/06/12 07:16:19;;;;;;;;;9.00;7.75;;;;;21.96;100.00;102031.53;5079920;28;45359;-78
2021/06/12 07:22:06;;;;;;;;;9.00;8.00;;;;;22.05;100.00;102054.25;5079517;28;45733;-76
2021/06/12 07:24:32;;;;;;;;;7.25;7.00;;;;;22.01;100.00;102042.84;5079762;28;45401;-77
2021/06/12 07:26:58;;;;;;;;;10.00;8.75;;;;;21.99;100.00;102042.03;5061251;28;45368;-76
2021/06/12 07:29:24;;;;;;;;;8.50;6.75;;;;;22.04;100.00;102049.88;5080047;28;45403;-76
2021/06/12 07:31:50;;;;;;;;;9.00;8.75;;;;;22.17;100.00;102060.84;5079825;28;45702;-77
2021/06/12 07:34:16;;;;;;;;;8.75;7.75;;;;;22.20;100.00;102053.63;5079731;28;45332;-77
2021/06/12 07:36:41;;;;;;;;;8.25;8.25;;;;;22.45;100.00;102069.41;5080017;28;45391;-77
2021/06/12 07:39:08;;;;;;;;;8.25;8.00;;;;;22.61;100.00;102081.13;5079976;28;45376;-76
2021/06/12 07:41:34;;;;;;;;;8.50;7.50;;;;;22.61;100.00;102053.63;5079209;28;46511;-77
2021/06/12 07:44:00;;;;;;;;;13.50;10.00;;;;;22.78;100.00;102074.19;5079654;28;45568;-76
2021/06/12 07:46:26;;;;;;;;;11.50;9.50;;;;;22.82;100.00;102070.50;5079385;28;45217;-76
2021/06/12 07:52:13;;;;;;;;;9.00;7.00;;;;;22.82;100.00;102067.84;5077177;28;45782;-75
2021/06/12 07:54:39;;;;;;;;;13.25;9.00;;;;;22.86;100.00;102075.66;5079170;28;45240;-75
2021/06/12 07:57:04;;;;;;;;;13.00;12.25;;;;;22.77;100.00;102065.34;5079505;28;45361;-76
2021/06/12 07:59:30;;;;;;;;;13.50;11.00;;;;;22.78;100.00;102085.72;5061040;28;45292;-76
2021/06/12 08:01:55;;;;;;;;;14.25;12.50;;;;;22.64;100.00;102060.66;5078809;28;47497;-76
2021/06/12 08:04:21;;;;;;;;;15.50;13.00;;;;;22.75;100.00;102083.19;5079278;28;45447;-76
2021/06/12 08:06:46;;;;;;;;;14.50;12.50;;;;;22.68;100.00;102084.41;5079003;28;45369;-77
2021/06/12 08:09:11;;;;;;;;;12.75;11.25;;;;;22.62;100.00;102069.53;5079210;28;45258;-76
2021/06/12 08:11:37;;;;;;;;;13.25;12.75;;;;;22.57;100.00;102074.19;5078578;28;46558;-77
2021/06/12 08:14:02;;;;;;;;;15.00;14.50;;;;;22.60;100.00;102083.84;5078711;28;45392;-77
2021/06/12 08:16:28;;;;;;;;;14.00;13.25;;;;;22.49;100.00;102075.47;5079265;28;45646;-77
2021/06/12 08:22:14;;;;;;;;;16.00;14.75;;;;;22.31;100.00;102061.13;5078799;28;45263;-77
2021/06/12 08:24:40;;;;;;;;;16.50;15.00;;;;;22.40;100.00;102075.84;5078615;28;45255;-77
2021/06/12 08:27:07;;;;;;;;;14.25;12.25;;;;;22.42;100.00;102079.34;5079006;28;45305;-76
2021/06/12 08:29:33;;;;;;;;;16.75;13.75;;;;;22.42;100.00;102092.66;5079186;28;45306;-76
2021/06/12 08:31:58;;;;;;;;;17.50;15.75;;;;;22.46;100.00;102078.28;5078765;28;45553;-79
2021/06/12 08:37:46;;;;;;;;;15.50;13.00;;;;;22.74;100.00;102084.13;5078520;28;45298;-77
2021/06/12 08:40:12;;;;;;;;;17.25;13.25;;;;;22.76;100.00;102060.97;5079056;28;45329;-78
2021/06/12 08:42:39;;;;;;;;;16.25;15.00;;;;;22.84;100.00;102052.66;5060012;28;46574;-80
2021/06/12 08:45:05;;;;;;;;;16.75;14.00;;;;;23.11;100.00;102094.06;5078609;28;45386;-80
2021/06/12 08:47:36;;;;;;;;;16.25;13.75;;;;;23.17;100.00;102106.22;5078252;28;45406;-79
2021/06/12 08:50:06;;;;;;;;;18.75;13.75;;;;;23.23;100.00;102105.94;5078617;28;45233;-78
2021/06/12 08:52:31;;;;;;;;;17.00;15.25;;;;;23.15;100.00;102068.13;5077921;28;45549;-78
2021/06/12 08:54:57;;;;;;;;;15.00;14.00;;;;;23.20;100.00;102043.00;5078297;28;45339;-78
2021/06/12 08:57:22;;;;;;;;;17.25;13.75;;;;;23.73;100.00;102092.09;5078345;28;45872;-78
2021/06/12 08:59:47;;;;;;;;;15.00;13.75;;;;;23.90;100.00;102099.28;5078718;28;45325;-79
2021/06/12 09:02:13;;;;;;;;;17.25;13.75;;;;;23.87;100.00;102075.44;5078214;28;46555;-78
2021/06/12 09:04:43;;;;;;;;;14.00;13.00;;;;;24.01;100.00;102083.66;5078492;28;45273;-78
2021/06/12 09:07:20;;;;;;;;;16.25;12.00;;;;;24.04;100.00;102079.03;5078098;28;45405;-78
2021/06/12 09:09:48;;;;;;;;;16.75;15.25;;;;;24.14;100.00;102084.75;5078476;28;45378;-78
2021/06/12 09:12:13;;;;;;;;;14.75;13.75;;;;;24.25;100.00;102084.22;5077794;28;46550;-78
2021/06/12 09:14:39;;;;;;;;;11.50;8.75;;;;;24.32;100.00;102085.69;5078017;28;45328;-79
2021/06/12 09:17:05;;;;;;;;;13.00;11.25;;;;;24.33;100.00;102082.94;5078189;28;45298;-79
2021/06/12 09:23:17;;;;;;;;;15.00;12.75;;;;;24.51;100.00;102097.16;5077130;28;45534;-79
2021/06/12 09:25:48;;;;;;;;;15.25;13.50;;;;;24.58;100.00;102095.03;5078041;28;45335;-79
2021/06/12 09:28:14;;;;;;;;;13.25;12.75;;;;;24.45;100.00;102064.56;5077970;28;45305;-79
2021/06/12 09:30:40;;;;;;;;;13.75;10.75;;;;;24.55;100.00;102077.34;5078249;28;45302;-79
2021/06/12 09:33:05;;;;;;;;;12.50;12.00;;;;;24.57;100.00;102061.25;5077606;28;45638;-79
2021/06/12 09:35:39;;;;;;;;;10.25;8.75;;;;;24.92;100.00;102096.81;5077556;28;45497;-80
2021/06/12 09:38:25;;;;;;;;;10.00;8.75;;;;;25.08;100.00;102087.06;5077894;28;45256;-79
2021/06/12 09:40:51;;;;;;;;;6.00;5.75;;;;;25.30;100.00;102087.63;5077931;28;45403;-79
2021/06/12 09:43:37;;;;;;;;;5.50;5.50;;;;;25.38;100.00;102089.03;5077443;28;46823;-79
2021/06/12 09:46:02;;;;;;;;;6.50;5.50;;;;;25.37;100.00;102092.66;5077311;28;45294;-79
2021/06/12 09:48:28;;;;;;;;;6.25;5.50;;;;;25.34;100.00;102077.63;5077758;28;45466;-79
2021/06/12 09:51:11;;;;;;;;;4.75;4.00;;;;;25.34;100.00;102041.03;5077824;28;45272;-79
2021/06/12 09:53:48;;;;;;;;;5.25;4.50;;;;;25.80;100.00;102067.06;5077265;28;45475;-79
2021/06/12 09:56:13;;;;;;;;;3.25;3.25;;;;;26.08;100.00;102087.78;5077562;28;45420;-79
2021/06/12 09:58:39;;;;;;;;;4.25;4.00;;;;;26.23;100.00;102073.47;5077720;28;45444;-79
2021/06/12 10:01:09;;;;;;;;;5.50;5.25;;;;;26.58;100.00;102087.50;5077677;28;45360;-79
2021/06/12 10:03:34;;;;;;;;;3.25;2.25;;;;;27.07;100.00;102071.13;5077340;28;45462;-79
2021/06/12 10:06:23;;;;;;;;;4.25;4.00;;;;;27.62;100.00;102097.13;5077492;28;45290;-78
2021/06/12 10:08:50;;;;;;;;;4.00;3.00;;;;;28.21;100.00;102087.00;5077257;28;45481;-78
2021/06/12 10:11:17;;;;;;;;;8.00;4.25;;;;;28.61;100.00;102094.09;5077679;28;45396;-77
2021/06/12 10:13:43;;;;;;;;;5.00;3.00;;;;;28.51;100.00;102089.44;5058752;28;47076;-71
2021/06/12 10:16:11;;;;;;;;;2.25;2.00;;;;;28.26;100.00;102104.53;5076818;28;45514;-70
2021/06/12 10:18:39;;;;;;;;;4.00;4.00;;;;;28.00;100.00;102091.97;5077166;28;45249;-75
2021/06/12 10:21:05;;;;;;;;;8.00;6.50;;;;;27.73;100.00;102105.38;5077106;28;45372;-75
2021/06/12 10:23:32;;;;;;;;;4.00;4.00;;;;;27.32;100.00;102108.84;5076814;28;45550;-77
2021/06/12 10:25:58;;;;;;;;;6.00;4.75;;;;;27.01;100.00;102104.53;5076908;28;45538;-77
2021/06/12 10:28:24;;;;;;;;;3.00;3.00;;;;;26.84;100.00;102096.63;5076578;28;45353;-79
2021/06/12 10:30:50;;;;;;;;;3.25;3.25;;;;;26.93;100.00;102104.09;5076909;28;45271;-78
2021/06/12 10:33:18;;;;;;;;;5.00;4.00;;;;;27.01;100.00;102104.53;5076713;28;46583;-78
2021/06/12 10:35:44;;;;;;;;;3.00;3.00;;;;;26.98;100.00;102103.84;5077939;28;45405;-78
2021/06/12 10:38:17;;;;;;;;;2.75;2.50;;;;;26.89;100.00;102094.53;5080598;28;45376;-74
2021/06/12 10:40:52;;;;;;;;;3.00;3.00;;;;;26.99;100.00;102101.09;5080799;28;45320;-73
2021/06/12 10:43:25;;;;;;;;;6.50;6.25;;;;;27.32;100.00;102105.28;5062015;28;47613;-81
2021/06/12 10:46:06;;;;;;;;;2.75;2.75;;;;;27.64;100.00;102114.91;5080632;28;45496;-82
2021/06/12 10:48:43;;;;;;;;;3.25;3.25;;;;;28.03;100.00;102114.09;5080527;28;45491;-79
2021/06/12 10:51:34;;;;;;;;;2.75;2.75;;;;;27.89;100.00;102100.75;5080068;28;45392;-79
2021/06/12 10:54:24;;;;;;;;;3.25;3.25;;;;;28.30;100.00;102111.47;4997654;28;46210;-76
2021/06/12 10:56:54;;;;;;;;;4.75;4.75;;;;;28.50;100.00;102115.47;4998076;28;45569;-79
2021/06/12 10:59:38;;;;;;;;;4.00;4.00;;;;;29.07;100.00;102114.28;4998098;28;45463;-82
2021/06/12 11:02:12;;;;;;;;;4.00;3.25;;;;;29.46;100.00;102106.09;4998172;28;45451;-82
2021/06/12 11:04:55;;;;;;;;;3.00;3.00;;;;;29.56;100.00;102093.66;4997504;28;46540;-76
2021/06/12 11:07:29;;;;;;;;;4.75;4.00;;;;;30.62;100.00;102118.16;4997797;28;45793;-77
2021/06/12 11:10:18;;;;;;;;;5.00;5.00;;;;;30.42;100.00;102095.38;4997884;28;45374;-76
2021/06/12 11:12:48;;;;;;;;;5.00;4.25;;;;;30.28;100.00;102123.38;4997811;28;45397;-80
2021/06/12 11:15:35;;;;;;;;;4.25;4.00;;;;;29.88;100.00;102125.47;4997332;28;46385;-78
2021/06/12 11:21:22;;;;;;;;;5.00;4.25;;;;;29.99;100.00;102109.38;4997175;28;45388;-78
2021/06/12 11:23:53;;;;;;;;;3.00;3.00;;;;;29.82;100.00;102102.53;4997504;28;45562;-76
2021/06/12 11:26:19;;;;;;;;;4.00;4.00;;;;;29.81;100.00;102113.41;4996782;28;46259;-76
2021/06/12 11:28:46;;;;;;;;;6.75;5.75;;;;;29.91;100.00;102110.91;4980084;28;45510;-74
2021/06/12 11:31:34;;;;;;;;;4.25;4.00;;;;;29.93;100.00;102109.81;5041868;28;45363;-75
2021/06/12 11:37:22;;;;;;;;;2.75;2.00;;;;;30.31;100.00;102089.94;5078951;28;45341;-73
2021/06/12 11:39:50;;;;;;;;;3.00;3.00;;;;;30.49;100.00;102112.78;5079365;28;45338;-76
2021/06/12 11:42:15;;;;;;;;;10.25;10.00;;;;;30.54;100.00;102091.72;5079413;28;45289;-78
2021/06/12 11:44:41;;;;;;;;;4.00;2.50;;;;;30.60;100.00;102085.03;5079467;28;45280;-78
2021/06/12 11:47:06;;;;;;;;;3.25;3.00;;;;;30.61;100.00;102090.31;5078678;28;45444;-78
2021/06/12 11:52:53;;;;;;;;;6.00;5.25;;;;;31.24;100.00;102097.06;5075193;28;45536;-81
2021/06/12 11:55:22;;;;;;;;;5.00;4.25;;;;;31.72;100.00;102099.47;5079691;28;45591;-82
2021/06/12 11:57:50;;;;;;;;;4.25;3.75;;;;;32.18;100.00;102104.63;5078993;27;46518;-80
2021/06/12 12:00:29;;;;;;;;;5.00;4.25;;;;;32.09;98.01;102072.09;5079126;28;45380;-81
2021/06/12 12:03:09;;;;;;;;;5.25;4.25;;;;;31.95;99.54;102108.38;5079362;28;45263;-81
2021/06/12 12:08:56;;;;;;;;;5.50;5.50;;;;;31.01;100.00;102084.50;5079042;28;45412;-82
2021/06/12 12:11:22;;;;;;;;;4.00;4.00;;;;;31.22;100.00;102103.53;5079236;28;45278;-81
2021/06/12 12:13:57;;;;;;;;;5.00;4.75;;;;;31.19;100.00;102074.94;5060903;28;45321;-81
2021/06/12 12:16:24;;;;;;;;;6.00;6.00;;;;;31.22;100.00;102076.53;5079477;28;45199;-80
2021/06/12 12:18:52;;;;;;;;;9.25;9.00;;;;;31.31;100.00;102109.06;5078693;28;45664;-80
2021/06/12 12:21:34;;;;;;;;;7.00;7.00;;;;;31.13;100.00;102106.94;5078706;28;45324;-80
2021/06/12 12:24:02;;;;;;;;;8.50;7.50;;;;;30.78;100.00;102111.44;5079173;28;45372;-81
2021/06/12 12:26:27;;;;;;;;;9.75;8.75;;;;;30.46;100.00;102099.56;5078914;28;45454;-80